createdAt,value
2022-12-31T00:01:26.320Z,6.32
2022-12-31T00:03:55.633Z,7.22
2022-12-31T00:06:27.969Z,5.50
2022-12-31T00:08:57.156Z,5.18
2022-12-31T00:11:26.949Z,6.35
2022-12-31T00:13:55.336Z,8.65
2022-12-31T00:16:24.926Z,8.63
2022-12-31T00:18:54.876Z,5.00
2022-12-31T00:21:24.007Z,6.47
2022-12-31T00:23:52.756Z,4.53
2022-12-31T00:26:22.370Z,4.30
2022-12-31T00:28:49.946Z,6.63
2022-12-31T00:31:19.216Z,4.97
2022-12-31T00:33:47.347Z,5.35
2022-12-31T00:36:16.779Z,5.03
2022-12-31T00:38:47.682Z,4.03
2022-12-31T00:41:16.372Z,3.60
2022-12-31T00:43:44.473Z,3.92
2022-12-31T00:46:12.665Z,4.13
2022-12-31T00:48:40.806Z,5.05
2022-12-31T00:51:11.699Z,3.38
2022-12-31T00:53:40.076Z,3.42
2022-12-31T00:56:11.878Z,3.40
2022-12-31T00:58:39.965Z,3.30
2022-12-31T01:01:11.499Z,3.40
2022-12-31T01:03:39.511Z,3.45
2022-12-31T01:06:08.164Z,3.53
2022-12-31T01:08:36.305Z,3.42
2022-12-31T01:11:19.461Z,3.38
2022-12-31T01:13:50.184Z,6.47
2022-12-31T01:16:21.687Z,4.32
2022-12-31T01:18:50.416Z,3.05
2022-12-31T01:21:19.269Z,5.55
2022-12-31T01:23:47.102Z,6.20
2022-12-31T01:26:16.742Z,5.05
2022-12-31T01:28:44.796Z,4.60
2022-12-31T01:31:15.887Z,4.60
2022-12-31T01:33:44.220Z,3.47
2022-12-31T01:36:14.211Z,3.80
2022-12-31T01:38:42.247Z,5.75
2022-12-31T01:41:13.007Z,4.68
2022-12-31T01:43:47.796Z,3.65
2022-12-31T01:46:23.586Z,4.57
2022-12-31T01:48:54.765Z,3.47
2022-12-31T01:51:24.076Z,3.50
2022-12-31T01:53:52.561Z,3.80
2022-12-31T01:56:22.461Z,3.72
2022-12-31T01:58:53.345Z,3.45
2022-12-31T02:01:27.816Z,3.65
2022-12-31T02:03:56.903Z,4.22
2022-12-31T02:06:29.793Z,5.03
2022-12-31T02:08:58.852Z,4.28
2022-12-31T02:11:29.067Z,4.00
2022-12-31T02:13:59.493Z,5.78
2022-12-31T02:16:35.689Z,4.55
2022-12-31T02:19:21.355Z,4.07
2022-12-31T02:22:01.246Z,3.42
2022-12-31T02:24:55.268Z,4.03
2022-12-31T02:27:52.909Z,4.10
2022-12-31T02:33:02.852Z,3.35
2022-12-31T02:35:34.096Z,2.95
2022-12-31T02:38:06.303Z,3.65
2022-12-31T02:40:37.287Z,2.60
2022-12-31T02:43:05.716Z,3.60
2022-12-31T02:45:38.476Z,3.78
2022-12-31T02:48:26.067Z,4.15
2022-12-31T02:51:04.748Z,3.53
2022-12-31T02:54:05.859Z,3.05
2022-12-31T02:56:39.495Z,3.13
2022-12-31T02:59:32.484Z,4.40
2022-12-31T03:02:16.555Z,3.83
2022-12-31T03:04:49.976Z,3.15
2022-12-31T03:07:21.660Z,2.83
2022-12-31T03:09:50.123Z,2.25
2022-12-31T03:12:39.049Z,3.92
2022-12-31T03:15:20.181Z,4.60
2022-12-31T03:17:57.217Z,2.97
2022-12-31T03:20:47.456Z,4.82
2022-12-31T03:23:20.765Z,2.78
2022-12-31T03:25:49.399Z,3.38
2022-12-31T03:28:19.576Z,6.05
2022-12-31T03:30:49.819Z,2.80
2022-12-31T03:33:19.865Z,4.97
2022-12-31T03:35:48.681Z,2.92
2022-12-31T03:38:17.352Z,5.03
2022-12-31T03:40:47.219Z,4.97
2022-12-31T03:43:15.577Z,2.75
2022-12-31T03:45:43.760Z,3.88
2022-12-31T03:48:11.868Z,5.05
2022-12-31T03:50:41.361Z,4.93
2022-12-31T03:53:09.524Z,3.45
2022-12-31T03:55:38.032Z,3.90
2022-12-31T03:58:06.132Z,4.72
2022-12-31T04:00:34.226Z,4.18
2022-12-31T04:03:02.304Z,7.70
2022-12-31T04:05:30.361Z,6.40
2022-12-31T04:08:00.012Z,4.57
2022-12-31T04:10:28.052Z,6.07
2022-12-31T04:12:56.066Z,9.45
2022-12-31T04:15:24.231Z,3.42
2022-12-31T04:17:52.293Z,4.47
2022-12-31T04:20:21.065Z,6.55
2022-12-31T04:22:50.188Z,6.70
2022-12-31T04:25:19.952Z,4.85
2022-12-31T04:27:48.732Z,5.75
2022-12-31T04:30:17.174Z,5.90
2022-12-31T04:32:45.091Z,6.10
2022-12-31T04:35:13.285Z,6.35
2022-12-31T04:37:41.564Z,5.88
2022-12-31T04:40:10.348Z,5.07
2022-12-31T04:42:39.883Z,5.00
2022-12-31T04:45:09.022Z,6.22
2022-12-31T04:47:37.116Z,5.80
2022-12-31T04:50:06.083Z,5.00
2022-12-31T04:52:38.742Z,4.80
2022-12-31T04:55:11.446Z,4.97
2022-12-31T04:57:42.068Z,6.25
2022-12-31T05:00:11.267Z,4.72
2022-12-31T05:02:39.536Z,6.63
2022-12-31T05:05:08.381Z,6.93
2022-12-31T05:07:36.420Z,5.70
2022-12-31T05:10:05.269Z,5.43
2022-12-31T05:12:33.332Z,4.82
2022-12-31T05:15:02.840Z,4.18
2022-12-31T05:17:30.971Z,5.32
2022-12-31T05:19:58.965Z,5.43
2022-12-31T05:22:29.620Z,6.45
2022-12-31T05:24:58.354Z,5.63
2022-12-31T05:27:26.988Z,5.53
2022-12-31T05:29:55.101Z,5.53
2022-12-31T05:32:24.660Z,7.38
2022-12-31T05:34:53.933Z,8.48
2022-12-31T05:37:21.952Z,7.80
2022-12-31T05:39:50.262Z,6.43
2022-12-31T05:42:18.192Z,8.35
2022-12-31T05:44:46.335Z,6.75
2022-12-31T05:47:15.025Z,6.70
2022-12-31T05:49:44.607Z,7.72
2022-12-31T05:52:12.663Z,11.45
2022-12-31T05:54:40.810Z,8.02
2022-12-31T05:57:09.216Z,8.38
2022-12-31T05:59:37.433Z,8.63
2022-12-31T06:02:05.438Z,7.80
2022-12-31T06:04:35.078Z,6.38
2022-12-31T06:07:04.690Z,7.05
2022-12-31T06:09:32.871Z,7.78
2022-12-31T06:12:01.030Z,6.72
2022-12-31T06:14:28.990Z,5.07
2022-12-31T06:16:57.046Z,6.93
2022-12-31T06:19:25.051Z,6.55
2022-12-31T06:21:52.914Z,7.45
2022-12-31T06:24:22.235Z,6.53
2022-12-31T06:26:50.458Z,7.35
2022-12-31T06:29:18.671Z,5.65
2022-12-31T06:31:48.022Z,6.55
2022-12-31T06:34:15.877Z,6.88
2022-12-31T06:36:43.889Z,6.72
2022-12-31T06:39:11.706Z,5.88
2022-12-31T06:41:41.172Z,7.10
2022-12-31T06:44:08.916Z,5.57
2022-12-31T06:46:36.927Z,6.15
2022-12-31T06:49:04.782Z,6.82
2022-12-31T06:51:32.879Z,7.38
2022-12-31T06:54:00.851Z,5.47
2022-12-31T06:56:34.284Z,8.23
2022-12-31T06:59:05.403Z,7.18
2022-12-31T07:01:48.048Z,7.43
2022-12-31T07:04:55.997Z,5.57
2022-12-31T07:07:31.054Z,8.35
2022-12-31T07:10:07.696Z,6.45
2022-12-31T07:15:13.628Z,5.47
2022-12-31T07:17:48.920Z,5.90
2022-12-31T07:20:19.110Z,5.97
2022-12-31T07:22:47.794Z,5.47
2022-12-31T07:25:17.862Z,6.00
2022-12-31T07:28:10.138Z,5.53
2022-12-31T07:30:46.936Z,4.78
2022-12-31T07:33:35.018Z,5.43
2022-12-31T07:36:16.584Z,5.50
2022-12-31T07:38:55.196Z,5.53
2022-12-31T07:41:38.211Z,5.30
2022-12-31T07:44:12.488Z,9.02
2022-12-31T07:46:53.234Z,5.90
2022-12-31T07:49:21.907Z,12.05
2022-12-31T07:51:52.965Z,16.63
2022-12-31T07:54:21.353Z,11.18
2022-12-31T07:56:51.291Z,8.27
2022-12-31T07:59:34.659Z,10.75
2022-12-31T08:02:12.282Z,8.77
2022-12-31T08:04:50.195Z,5.95
2022-12-31T08:07:24.838Z,6.63
2022-12-31T08:10:02.836Z,8.18
2022-12-31T08:12:35.095Z,9.00
2022-12-31T08:15:04.295Z,10.77
2022-12-31T08:17:34.261Z,7.13
2022-12-31T08:20:03.267Z,6.47
2022-12-31T08:22:45.815Z,6.53
2022-12-31T08:25:21.519Z,8.80
2022-12-31T08:28:00.272Z,5.15
2022-12-31T08:30:37.400Z,6.18
2022-12-31T08:33:14.492Z,7.28
2022-12-31T08:35:56.692Z,6.32
2022-12-31T08:38:32.328Z,6.63
2022-12-31T08:41:10.802Z,5.65
2022-12-31T08:43:49.827Z,7.68
2022-12-31T08:46:23.766Z,7.40
2022-12-31T08:48:53.619Z,7.75
2022-12-31T08:51:24.331Z,6.25
2022-12-31T08:53:53.713Z,9.20
2022-12-31T08:56:29.184Z,7.68
2022-12-31T08:59:08.780Z,9.65
2022-12-31T09:01:51.131Z,8.23
2022-12-31T09:04:27.703Z,8.93
2022-12-31T09:06:59.277Z,8.18
2022-12-31T09:09:38.644Z,7.00
2022-12-31T09:12:12.486Z,8.25
2022-12-31T09:14:55.918Z,7.25
2022-12-31T09:17:36.996Z,9.25
2022-12-31T09:20:14.337Z,6.82
2022-12-31T09:22:42.802Z,13.15
2022-12-31T09:25:15.167Z,8.57
2022-12-31T09:27:51.048Z,6.60
2022-12-31T09:30:20.044Z,7.53
2022-12-31T09:33:00.886Z,9.63
2022-12-31T09:35:37.205Z,10.02
2022-12-31T09:38:12.105Z,6.47
2022-12-31T09:41:11.354Z,9.35
2022-12-31T09:44:14.792Z,7.55
2022-12-31T09:47:29.810Z,8.52
2022-12-31T09:50:21.127Z,9.40
2022-12-31T09:53:05.898Z,8.27
2022-12-31T09:55:38.517Z,6.13
2022-12-31T09:58:25.003Z,7.03
2022-12-31T10:00:58.436Z,48.20
2022-12-31T10:03:52.321Z,19.13
2022-12-31T10:06:29.116Z,13.32
2022-12-31T10:09:32.721Z,13.15
2022-12-31T10:12:29.214Z,13.18
2022-12-31T10:15:19.973Z,10.05
2022-12-31T10:17:59.693Z,9.32
2022-12-31T10:20:46.252Z,8.07
2022-12-31T10:23:34.149Z,11.98
2022-12-31T10:26:26.924Z,8.55
2022-12-31T10:29:09.250Z,8.50
2022-12-31T10:31:48.524Z,8.82
2022-12-31T10:34:20.783Z,11.02
2022-12-31T10:36:55.981Z,8.88
2022-12-31T10:39:43.306Z,9.73
2022-12-31T10:42:49.718Z,10.98
2022-12-31T10:45:48.336Z,8.95
2022-12-31T10:48:55.145Z,7.63
2022-12-31T10:51:50.636Z,8.57
2022-12-31T10:55:06.477Z,12.18
2022-12-31T10:58:06.939Z,10.00
2022-12-31T11:00:41.464Z,9.05
2022-12-31T11:03:45.670Z,8.52
2022-12-31T11:06:49.761Z,7.13
2022-12-31T11:10:10.709Z,11.63
2022-12-31T11:13:11.209Z,7.63
2022-12-31T11:15:54.844Z,7.22
2022-12-31T11:18:33.029Z,7.90
2022-12-31T11:21:15.514Z,7.72
2022-12-31T11:23:55.886Z,7.63
2022-12-31T11:26:35.366Z,7.00
2022-12-31T11:29:14.603Z,8.00
2022-12-31T11:32:07.569Z,7.03
2022-12-31T11:35:14.017Z,9.32
2022-12-31T11:37:47.528Z,5.43
2022-12-31T11:40:42.558Z,12.18
2022-12-31T11:43:27.529Z,8.98
2022-12-31T11:46:28.282Z,9.10
2022-12-31T11:49:09.142Z,7.45
2022-12-31T11:52:07.868Z,9.60
2022-12-31T11:55:01.046Z,6.07
2022-12-31T11:57:35.488Z,7.40
2022-12-31T12:00:13.377Z,11.20
2022-12-31T12:02:46.179Z,8.10
2022-12-31T12:05:16.827Z,9.38
2022-12-31T12:07:47.328Z,10.95
2022-12-31T12:10:27.857Z,8.43
2022-12-31T12:13:00.712Z,11.63
2022-12-31T12:15:31.916Z,10.70
2022-12-31T12:18:09.003Z,10.75
2022-12-31T12:20:39.120Z,11.20
2022-12-31T12:23:22.470Z,10.32
2022-12-31T12:25:51.464Z,6.97
2022-12-31T12:28:22.378Z,8.18
2022-12-31T12:30:59.580Z,10.27
2022-12-31T12:33:30.151Z,8.23
2022-12-31T12:36:09.324Z,10.23
2022-12-31T12:38:39.774Z,9.15
2022-12-31T12:41:12.158Z,11.88
2022-12-31T12:43:40.973Z,9.77
2022-12-31T12:46:32.007Z,6.53
2022-12-31T12:49:00.847Z,8.27
2022-12-31T12:51:40.093Z,12.65
2022-12-31T12:54:20.540Z,7.10
2022-12-31T12:57:00.195Z,9.07
2022-12-31T12:59:54.062Z,8.02
2022-12-31T13:02:58.104Z,11.02
2022-12-31T13:05:38.724Z,7.95
2022-12-31T13:08:22.770Z,9.90
2022-12-31T13:11:07.905Z,8.10
2022-12-31T13:13:44.356Z,6.65
2022-12-31T13:16:22.768Z,9.85
2022-12-31T13:18:59.346Z,7.10
2022-12-31T13:21:38.387Z,5.78
2022-12-31T13:24:18.817Z,5.38
2022-12-31T13:26:54.999Z,9.45
2022-12-31T13:29:29.532Z,10.38
2022-12-31T13:32:01.301Z,8.30
2022-12-31T13:34:33.385Z,8.05
2022-12-31T13:37:06.147Z,6.25
2022-12-31T13:39:40.222Z,7.20
2022-12-31T13:42:15.618Z,5.65
2022-12-31T13:44:50.242Z,6.50
2022-12-31T13:47:25.073Z,6.90
2022-12-31T13:49:59.376Z,7.05
2022-12-31T13:52:35.267Z,7.50
2022-12-31T13:55:13.033Z,9.35
2022-12-31T13:57:46.490Z,6.07
2022-12-31T14:00:21.823Z,6.18
2022-12-31T14:03:00.848Z,5.55
2022-12-31T14:05:34.665Z,7.20
2022-12-31T14:08:05.645Z,14.52
2022-12-31T14:10:55.213Z,8.77
2022-12-31T14:13:58.306Z,9.32
2022-12-31T14:16:34.742Z,13.45
2022-12-31T14:21:39.929Z,7.45
2022-12-31T14:24:14.277Z,8.40
2022-12-31T14:26:45.653Z,6.90
2022-12-31T14:29:29.716Z,5.03
2022-12-31T14:32:22.333Z,8.27
2022-12-31T14:34:58.821Z,5.15
2022-12-31T14:37:35.746Z,6.25
2022-12-31T14:40:16.245Z,5.78
2022-12-31T14:42:52.536Z,6.15
2022-12-31T14:45:30.870Z,4.53
2022-12-31T14:48:06.826Z,10.10
2022-12-31T14:50:35.141Z,7.53
2022-12-31T14:53:09.619Z,6.40
2022-12-31T14:55:39.172Z,9.38
2022-12-31T14:58:28.202Z,6.75
2022-12-31T15:00:59.383Z,8.07
2022-12-31T15:03:37.891Z,7.60
2022-12-31T15:06:28.248Z,8.35
2022-12-31T15:09:08.527Z,7.43
2022-12-31T15:12:21.195Z,8.48
2022-12-31T15:15:15.694Z,6.68
2022-12-31T15:17:55.619Z,6.15
2022-12-31T15:20:44.044Z,7.13
2022-12-31T15:23:21.916Z,8.93
2022-12-31T15:25:54.832Z,6.75
2022-12-31T15:28:34.705Z,5.43
2022-12-31T15:31:07.974Z,8.60
2022-12-31T15:33:52.863Z,8.80
2022-12-31T15:36:22.817Z,6.47
2022-12-31T15:38:51.590Z,7.65
2022-12-31T15:41:28.871Z,5.82
2022-12-31T15:46:29.504Z,5.78
2022-12-31T15:49:06.797Z,7.90
2022-12-31T15:51:45.047Z,6.00
2022-12-31T15:54:23.555Z,7.13
2022-12-31T15:56:53.443Z,8.38
2022-12-31T15:59:23.695Z,9.48
2022-12-31T16:01:51.451Z,7.25
2022-12-31T16:04:23.267Z,10.43
2022-12-31T16:06:51.858Z,8.57
2022-12-31T16:09:25.056Z,12.32
2022-12-31T16:11:54.827Z,20.08
2022-12-31T16:14:25.839Z,16.33
2022-12-31T16:16:56.075Z,15.65
2022-12-31T16:19:41.169Z,15.45
2022-12-31T16:22:17.039Z,14.13
2022-12-31T16:25:19.501Z,11.30
2022-12-31T16:27:34.702Z,15.55
2022-12-31T16:30:04.979Z,12.02
2022-12-31T16:32:35.792Z,10.57
2022-12-31T16:35:23.716Z,8.80
2022-12-31T16:38:02.125Z,11.85
2022-12-31T16:40:29.929Z,8.63
2022-12-31T16:42:57.505Z,10.15
2022-12-31T16:45:32.155Z,9.27
2022-12-31T16:48:09.925Z,9.00
2022-12-31T16:50:46.528Z,7.95
2022-12-31T16:53:18.512Z,15.07
2022-12-31T16:55:54.724Z,11.00
2022-12-31T16:58:27.399Z,10.88
2022-12-31T17:01:00.352Z,10.68
2022-12-31T17:03:30.030Z,10.38
2022-12-31T17:06:12.633Z,13.52
2022-12-31T17:08:42.693Z,20.60
2022-12-31T17:11:23.744Z,14.88
2022-12-31T17:13:57.184Z,12.88
2022-12-31T17:16:26.004Z,13.70
2022-12-31T17:18:53.935Z,13.07
2022-12-31T17:21:27.836Z,14.90
2022-12-31T17:24:01.112Z,14.95
2022-12-31T17:26:31.231Z,16.63
2022-12-31T17:29:00.636Z,17.77
2022-12-31T17:31:34.558Z,24.60
2022-12-31T17:34:21.034Z,19.90
2022-12-31T17:37:18.863Z,19.23
2022-12-31T17:39:49.160Z,19.95
2022-12-31T17:42:31.942Z,18.40
2022-12-31T17:45:03.294Z,16.35
2022-12-31T17:47:37.311Z,19.40
2022-12-31T17:50:20.989Z,19.10
2022-12-31T17:52:50.934Z,20.50
2022-12-31T17:55:19.770Z,20.00
2022-12-31T17:57:51.834Z,21.80
2022-12-31T18:00:22.332Z,18.85
2022-12-31T18:02:50.830Z,19.77
2022-12-31T18:05:20.229Z,20.88
2022-12-31T18:07:50.053Z,19.15
2022-12-31T18:10:21.917Z,22.17
2022-12-31T18:12:50.748Z,22.17
2022-12-31T18:15:21.402Z,22.13
2022-12-31T18:17:49.747Z,23.58
2022-12-31T18:20:18.306Z,23.00
2022-12-31T18:22:46.837Z,21.42
2022-12-31T18:25:19.103Z,23.77
2022-12-31T18:27:47.295Z,27.00
2022-12-31T18:30:18.576Z,22.30
2022-12-31T18:32:47.343Z,23.95
2022-12-31T18:35:40.630Z,24.60
2022-12-31T18:38:10.950Z,28.48
2022-12-31T18:40:44.474Z,24.00
2022-12-31T18:43:16.845Z,29.67
2022-12-31T18:45:52.477Z,29.00
2022-12-31T18:48:20.841Z,28.23
2022-12-31T18:50:49.639Z,26.60
2022-12-31T18:53:20.028Z,24.38
2022-12-31T18:55:52.137Z,24.88
2022-12-31T18:58:20.602Z,23.63
2022-12-31T19:00:49.919Z,26.15
2022-12-31T19:03:20.257Z,25.48
2022-12-31T19:05:51.190Z,19.40
2022-12-31T19:08:20.070Z,24.08
2022-12-31T19:10:51.405Z,21.73
2022-12-31T19:13:20.315Z,25.58
2022-12-31T19:15:49.989Z,23.63
2022-12-31T19:18:18.261Z,25.33
2022-12-31T19:20:46.855Z,23.17
2022-12-31T19:23:18.160Z,21.63
2022-12-31T19:25:48.917Z,16.52
2022-12-31T19:28:18.974Z,18.58
2022-12-31T19:30:47.267Z,22.23
2022-12-31T19:33:16.133Z,17.83
2022-12-31T19:35:44.483Z,19.95
2022-12-31T19:38:19.057Z,21.00
2022-12-31T19:40:49.745Z,17.75
2022-12-31T19:43:20.799Z,19.10
2022-12-31T19:45:49.402Z,16.20
2022-12-31T19:48:18.577Z,36.83
2022-12-31T19:50:48.824Z,22.85
2022-12-31T19:53:18.828Z,26.52
2022-12-31T19:55:49.140Z,32.35
2022-12-31T19:58:19.961Z,27.00
2022-12-31T20:00:54.821Z,27.50
2022-12-31T20:03:25.629Z,30.70
2022-12-31T20:06:02.293Z,40.28
2022-12-31T20:08:30.496Z,50.85
2022-12-31T20:11:07.074Z,55.90
2022-12-31T20:13:35.790Z,40.70
2022-12-31T20:16:06.065Z,53.35
2022-12-31T20:18:34.101Z,64.72
2022-12-31T20:21:02.045Z,61.20
2022-12-31T20:23:32.636Z,59.03
2022-12-31T20:26:03.128Z,61.17
2022-12-31T20:28:31.416Z,60.97
2022-12-31T20:30:59.565Z,63.53
2022-12-31T20:33:30.400Z,63.03
2022-12-31T20:36:03.328Z,59.35
2022-12-31T20:38:31.731Z,68.28
2022-12-31T20:41:05.626Z,69.70
2022-12-31T20:43:34.701Z,66.55
2022-12-31T20:46:12.673Z,65.88
2022-12-31T20:48:44.285Z,69.80
2022-12-31T20:51:13.505Z,61.30
2022-12-31T20:53:47.489Z,45.03
2022-12-31T20:56:18.119Z,46.75
2022-12-31T20:58:46.330Z,34.78
2022-12-31T21:01:15.109Z,34.60
2022-12-31T21:06:35.772Z,20.63
2022-12-31T21:09:06.036Z,22.67
2022-12-31T21:11:54.712Z,20.95
2022-12-31T21:14:23.550Z,20.42
2022-12-31T21:16:51.798Z,17.80
2022-12-31T21:19:19.797Z,16.10
2022-12-31T21:21:48.499Z,17.20
2022-12-31T21:24:23.302Z,17.25
2022-12-31T21:26:55.992Z,17.40
2022-12-31T21:29:24.104Z,16.55
2022-12-31T21:31:52.025Z,17.50
2022-12-31T21:34:20.272Z,18.33
2022-12-31T21:36:48.654Z,24.33
2022-12-31T21:39:16.874Z,21.58
2022-12-31T21:41:54.217Z,17.52
2022-12-31T21:44:25.471Z,17.83
2022-12-31T21:47:34.881Z,15.77
2022-12-31T21:50:06.250Z,16.45
2022-12-31T21:52:35.383Z,15.18
2022-12-31T21:55:23.909Z,18.30
2022-12-31T21:58:24.682Z,16.25
2022-12-31T22:01:00.946Z,16.58
2022-12-31T22:03:29.439Z,16.50
2022-12-31T22:06:00.608Z,16.92
2022-12-31T22:08:29.841Z,20.38
2022-12-31T22:10:58.037Z,17.63
2022-12-31T22:13:26.214Z,12.60
2022-12-31T22:16:03.967Z,17.92
2022-12-31T22:18:35.248Z,18.95
2022-12-31T22:21:05.826Z,15.25
2022-12-31T22:23:34.675Z,13.27
2022-12-31T22:26:03.035Z,46.53
2022-12-31T22:28:39.842Z,20.92
2022-12-31T22:31:12.836Z,26.15
2022-12-31T22:33:40.842Z,21.08
2022-12-31T22:36:11.830Z,15.50
2022-12-31T22:38:39.737Z,14.00
2022-12-31T22:41:09.615Z,11.52
2022-12-31T22:43:40.039Z,15.90
2022-12-31T22:46:11.869Z,23.52
2022-12-31T22:48:40.578Z,26.27
2022-12-31T22:51:09.502Z,17.50
2022-12-31T22:53:39.845Z,19.23
2022-12-31T22:56:08.711Z,20.98
2022-12-31T22:58:37.056Z,19.23
2022-12-31T23:01:06.358Z,18.13
2022-12-31T23:03:35.973Z,21.67
2022-12-31T23:06:04.122Z,20.92
2022-12-31T23:08:32.006Z,27.15
2022-12-31T23:11:00.666Z,26.20
2022-12-31T23:13:50.823Z,56.55
2022-12-31T23:16:38.583Z,76.35
2022-12-31T23:19:26.790Z,110.97
2022-12-31T23:22:13.149Z,93.63
2022-12-31T23:24:41.295Z,77.72
2022-12-31T23:27:09.572Z,103.65
2022-12-31T23:29:46.264Z,124.30
2022-12-31T23:32:16.463Z,118.95
2022-12-31T23:34:46.607Z,112.47
2022-12-31T23:37:15.298Z,107.72
2022-12-31T23:39:43.565Z,78.70
2022-12-31T23:42:11.556Z,66.25
2022-12-31T23:44:39.608Z,56.70
2022-12-31T23:47:07.712Z,49.10
2022-12-31T23:49:35.732Z,47.08
2022-12-31T23:52:05.235Z,38.92
2022-12-31T23:55:03.998Z,39.28
2022-12-31T23:57:32.217Z,44.80
